createdAt,value
2022-11-05T00:00:37.491Z,84.89
2022-11-05T00:03:28.965Z,84.89
2022-11-05T00:06:15.166Z,84.91
2022-11-05T00:09:01.691Z,84.91
2022-11-05T00:11:47.784Z,84.90
2022-11-05T00:14:34.087Z,84.91
2022-11-05T00:17:01.895Z,84.84
2022-11-05T00:19:29.675Z,84.82
2022-11-05T00:22:16.265Z,84.83
2022-11-05T00:25:02.584Z,84.78
2022-11-05T00:27:34.173Z,84.72
2022-11-05T00:30:01.977Z,84.73
2022-11-05T00:32:29.841Z,84.77
2022-11-05T00:34:57.665Z,84.78
2022-11-05T00:37:28.222Z,84.78
2022-11-05T00:39:56.161Z,84.67
2022-11-05T00:42:42.426Z,84.47
2022-11-05T00:45:10.694Z,84.32
2022-11-05T00:47:58.042Z,84.36
2022-11-05T00:50:26.564Z,84.16
2022-11-05T00:53:00.739Z,84.08
2022-11-05T00:55:30.210Z,83.91
2022-11-05T00:57:58.275Z,83.84
2022-11-05T01:00:29.563Z,83.91
2022-11-05T01:02:59.577Z,83.82
2022-11-05T01:05:28.289Z,84.09
2022-11-05T01:07:56.534Z,84.26
2022-11-05T01:10:24.907Z,84.45
2022-11-05T01:12:53.297Z,84.55
2022-11-05T01:15:21.502Z,84.65
2022-11-05T01:17:51.173Z,84.72
2022-11-05T01:20:18.914Z,84.78
2022-11-05T01:22:46.862Z,84.83
2022-11-05T01:25:14.834Z,84.86
2022-11-05T01:27:42.642Z,84.88
2022-11-05T01:30:13.432Z,84.88
2022-11-05T01:32:41.755Z,84.89
2022-11-05T01:35:14.083Z,84.86
2022-11-05T01:37:42.257Z,84.82
2022-11-05T01:40:19.748Z,84.83
2022-11-05T01:42:47.672Z,84.76
2022-11-05T01:45:25.576Z,84.75
2022-11-05T01:48:24.670Z,84.77
2022-11-05T01:51:03.346Z,84.77
2022-11-05T01:53:52.085Z,84.73
2022-11-05T01:56:38.266Z,84.75
2022-11-05T01:59:16.946Z,84.78
2022-11-05T02:01:45.446Z,84.77
2022-11-05T02:04:21.405Z,84.78
2022-11-05T02:06:49.284Z,84.84
2022-11-05T02:09:33.515Z,84.86
2022-11-05T02:12:01.460Z,84.90
2022-11-05T02:14:29.364Z,84.97
2022-11-05T02:17:06.149Z,85.01
2022-11-05T02:20:09.699Z,85.04
2022-11-05T02:23:02.321Z,85.13
2022-11-05T02:26:07.915Z,85.18
2022-11-05T02:29:00.356Z,85.18
2022-11-05T02:32:08.066Z,85.20
2022-11-05T02:35:19.325Z,85.22
2022-11-05T02:37:54.791Z,85.26
2022-11-05T02:40:30.706Z,85.31
2022-11-05T02:43:26.285Z,85.37
2022-11-05T02:46:03.979Z,85.34
2022-11-05T02:49:19.217Z,85.40
2022-11-05T02:51:57.987Z,85.47
2022-11-05T02:54:51.489Z,85.54
2022-11-05T02:57:22.048Z,85.59
2022-11-05T03:00:01.860Z,85.64
2022-11-05T03:02:29.941Z,85.71
2022-11-05T03:04:58.904Z,85.74
2022-11-05T03:07:45.849Z,85.79
2022-11-05T03:10:33.772Z,85.85
2022-11-05T03:13:18.367Z,85.87
2022-11-05T03:16:13.344Z,85.87
2022-11-05T03:18:51.747Z,85.91
2022-11-05T03:21:35.758Z,85.93
2022-11-05T03:24:17.302Z,85.96
2022-11-05T03:27:23.981Z,85.99
2022-11-05T03:29:59.619Z,86.03
2022-11-05T03:32:30.798Z,86.05
2022-11-05T03:35:06.460Z,86.13
2022-11-05T03:37:37.919Z,86.22
2022-11-05T03:40:08.981Z,86.31
2022-11-05T03:42:39.380Z,86.36
2022-11-05T03:45:27.117Z,86.41
2022-11-05T03:47:58.317Z,86.36
2022-11-05T03:50:51.173Z,86.27
2022-11-05T03:53:27.365Z,86.28
2022-11-05T03:56:06.937Z,86.32
2022-11-05T03:58:35.569Z,86.31
2022-11-05T04:01:04.234Z,86.32
2022-11-05T04:03:36.674Z,86.31
2022-11-05T04:06:25.618Z,86.22
2022-11-05T04:09:12.275Z,86.17
2022-11-05T04:11:58.591Z,86.11
2022-11-05T04:14:26.623Z,86.07
2022-11-05T04:17:06.401Z,85.98
2022-11-05T04:20:03.733Z,85.97
2022-11-05T04:22:53.198Z,85.91
2022-11-05T04:25:22.078Z,85.89
2022-11-05T04:27:50.140Z,85.86
2022-11-05T04:30:19.456Z,85.81
2022-11-05T04:33:02.478Z,85.78
2022-11-05T04:35:42.248Z,85.83
2022-11-05T04:38:14.781Z,85.82
2022-11-05T04:40:43.218Z,85.83
2022-11-05T04:43:17.533Z,85.82
2022-11-05T04:45:46.020Z,85.77
2022-11-05T04:48:13.862Z,85.71
2022-11-05T04:50:41.803Z,85.56
2022-11-05T04:53:09.816Z,85.42
2022-11-05T04:55:37.815Z,85.31
2022-11-05T04:58:05.667Z,85.27
2022-11-05T05:00:33.495Z,85.18
2022-11-05T05:03:01.381Z,85.14
2022-11-05T05:05:30.603Z,85.11
2022-11-05T05:08:05.900Z,85.08
2022-11-05T05:10:33.737Z,85.04
2022-11-05T05:13:01.530Z,84.99
2022-11-05T05:15:29.337Z,84.97
2022-11-05T05:17:57.176Z,84.99
2022-11-05T05:20:43.358Z,85.03
2022-11-05T05:23:11.365Z,85.08
2022-11-05T05:25:39.360Z,85.14
2022-11-05T05:28:07.238Z,85.21
2022-11-05T05:30:35.062Z,85.23
2022-11-05T05:33:04.560Z,85.23
2022-11-05T05:35:32.408Z,85.08
2022-11-05T05:38:00.234Z,84.80
2022-11-05T05:40:28.127Z,84.58
2022-11-05T05:42:56.065Z,84.20
2022-11-05T05:45:23.920Z,84.14
2022-11-05T05:47:51.846Z,84.12
2022-11-05T05:50:19.619Z,84.10
2022-11-05T05:52:47.634Z,84.03
2022-11-05T05:55:15.508Z,84.01
2022-11-05T05:57:43.393Z,83.98
2022-11-05T06:00:12.455Z,84.00
2022-11-05T06:02:41.726Z,83.92
2022-11-05T06:05:11.148Z,83.92
2022-11-05T06:07:38.999Z,83.94
2022-11-05T06:10:07.255Z,83.86
2022-11-05T06:12:35.084Z,83.80
2022-11-05T06:15:03.187Z,83.71
2022-11-05T06:17:31.040Z,83.55
2022-11-05T06:19:58.778Z,83.46
2022-11-05T06:22:26.551Z,83.44
2022-11-05T06:24:54.361Z,83.41
2022-11-05T06:27:22.261Z,83.34
2022-11-05T06:29:50.013Z,83.20
2022-11-05T06:32:17.745Z,82.82
2022-11-05T06:34:45.588Z,82.44
2022-11-05T06:37:14.634Z,82.42
2022-11-05T06:39:42.561Z,82.37
2022-11-05T06:42:18.936Z,82.29
2022-11-05T06:44:47.292Z,82.11
2022-11-05T06:47:20.921Z,82.07
2022-11-05T06:49:49.361Z,82.19
2022-11-05T06:52:17.201Z,82.31
2022-11-05T06:54:45.015Z,82.39
2022-11-05T06:57:13.113Z,82.29
2022-11-05T06:59:41.351Z,82.14
2022-11-05T07:02:12.940Z,82.15
2022-11-05T07:04:40.905Z,82.13
2022-11-05T07:07:08.805Z,81.93
2022-11-05T07:09:42.717Z,82.00
2022-11-05T07:12:11.131Z,81.89
2022-11-05T07:14:39.391Z,81.72
2022-11-05T07:17:07.340Z,81.64
2022-11-05T07:19:35.184Z,81.53
2022-11-05T07:22:03.029Z,81.26
2022-11-05T07:24:30.894Z,81.25
2022-11-05T07:26:58.847Z,81.16
2022-11-05T07:29:26.610Z,81.12
2022-11-05T07:31:54.586Z,81.07
2022-11-05T07:34:22.386Z,81.00
2022-11-05T07:36:50.285Z,80.89
2022-11-05T07:39:18.382Z,80.88
2022-11-05T07:41:46.295Z,80.80
2022-11-05T07:44:14.573Z,80.86
2022-11-05T07:46:42.520Z,80.82
2022-11-05T07:49:10.563Z,80.85
2022-11-05T07:51:43.097Z,80.85
2022-11-05T07:54:11.136Z,80.90
2022-11-05T07:56:39.034Z,80.90
2022-11-05T07:59:06.948Z,81.12
2022-11-05T08:01:35.022Z,81.18
2022-11-05T08:04:06.258Z,81.19
2022-11-05T08:06:43.231Z,81.26
2022-11-05T08:09:11.363Z,81.26
2022-11-05T08:11:40.066Z,81.37
2022-11-05T08:14:08.255Z,81.38
2022-11-05T08:16:36.069Z,81.47
2022-11-05T08:19:04.773Z,81.38
2022-11-05T08:21:32.675Z,81.24
2022-11-05T08:24:00.472Z,81.20
2022-11-05T08:26:28.268Z,81.17
2022-11-05T08:28:56.046Z,80.99
2022-11-05T08:31:23.884Z,80.92
2022-11-05T08:34:09.920Z,81.08
2022-11-05T08:36:37.789Z,81.03
2022-11-05T08:39:05.568Z,80.87
2022-11-05T08:41:33.461Z,80.70
2022-11-05T08:44:01.316Z,80.56
2022-11-05T08:46:29.310Z,80.73
2022-11-05T08:48:57.097Z,80.64
2022-11-05T08:51:24.974Z,80.26
2022-11-05T08:53:52.764Z,80.25
2022-11-05T08:56:20.843Z,80.52
2022-11-05T08:58:48.845Z,80.94
2022-11-05T09:01:17.003Z,81.14
2022-11-05T09:03:45.180Z,81.23
2022-11-05T09:06:13.162Z,81.17
2022-11-05T09:08:41.090Z,81.05
2022-11-05T09:11:09.028Z,80.87
2022-11-05T09:13:36.866Z,80.33
2022-11-05T09:16:05.443Z,80.25
2022-11-05T09:18:33.745Z,80.34
2022-11-05T09:21:01.547Z,80.65
2022-11-05T09:25:50.630Z,78.46
2022-11-05T09:28:21.636Z,79.75
2022-11-05T09:30:53.089Z,79.45
2022-11-05T09:33:26.686Z,79.73
2022-11-05T09:35:54.725Z,79.45
2022-11-05T09:38:22.592Z,79.26
2022-11-05T09:41:02.360Z,79.01
2022-11-05T09:43:49.893Z,78.96
2022-11-05T09:46:21.019Z,79.10
2022-11-05T09:49:03.459Z,79.24
2022-11-05T09:51:32.431Z,79.25
2022-11-05T09:54:00.735Z,78.97
2022-11-05T09:56:34.421Z,78.98
2022-11-05T09:59:40.220Z,79.05
2022-11-05T10:02:35.850Z,79.26
2022-11-05T10:05:10.211Z,79.17
2022-11-05T10:07:48.633Z,78.98
2022-11-05T10:10:50.257Z,78.89
2022-11-05T10:13:23.654Z,78.77
2022-11-05T10:16:03.267Z,78.12
2022-11-05T10:18:41.126Z,77.91
2022-11-05T10:21:16.935Z,77.58
2022-11-05T10:23:48.137Z,77.21
2022-11-05T10:26:21.240Z,76.90
2022-11-05T10:28:49.632Z,76.90
2022-11-05T10:31:23.292Z,77.04
2022-11-05T10:34:02.138Z,76.86
2022-11-05T10:36:34.612Z,77.01
2022-11-05T10:39:20.395Z,76.92
2022-11-05T10:42:33.354Z,77.02
2022-11-05T10:45:04.597Z,76.29
2022-11-05T10:48:26.173Z,76.32
2022-11-05T10:50:54.267Z,76.26
2022-11-05T10:53:34.577Z,76.32
2022-11-05T10:56:02.863Z,76.27
2022-11-05T10:58:34.894Z,76.44
2022-11-05T11:01:11.122Z,76.34
2022-11-05T11:04:03.864Z,75.86
2022-11-05T11:06:39.991Z,75.81
2022-11-05T11:09:20.045Z,75.96
2022-11-05T11:11:55.516Z,75.89
2022-11-05T11:14:23.349Z,76.13
2022-11-05T11:16:51.911Z,76.26
2022-11-05T11:19:31.827Z,75.93
2022-11-05T11:22:05.853Z,75.90
2022-11-05T11:24:54.198Z,75.77
2022-11-05T11:27:27.416Z,75.74
2022-11-05T11:30:04.995Z,75.36
2022-11-05T11:32:37.918Z,75.35
2022-11-05T11:35:09.071Z,75.33
2022-11-05T11:37:42.190Z,75.08
2022-11-05T11:40:45.272Z,74.85
2022-11-05T11:43:26.076Z,74.76
2022-11-05T11:45:59.382Z,74.63
2022-11-05T11:48:32.021Z,74.81
2022-11-05T11:51:00.179Z,75.00
2022-11-05T11:53:34.756Z,75.15
2022-11-05T11:56:14.080Z,75.20
2022-11-05T11:58:43.828Z,74.97
2022-11-05T12:01:43.078Z,74.89
2022-11-05T12:04:29.374Z,74.96
2022-11-05T12:07:25.398Z,75.06
2022-11-05T12:10:35.458Z,74.99
2022-11-05T12:13:24.522Z,74.82
2022-11-05T12:16:15.807Z,74.93
2022-11-05T12:19:05.119Z,75.19
2022-11-05T12:21:58.941Z,75.02
2022-11-05T12:25:13.020Z,74.87
2022-11-05T12:28:57.703Z,74.88
2022-11-05T12:32:08.499Z,74.72
2022-11-05T12:35:14.736Z,74.59
2022-11-05T12:38:09.441Z,74.24
2022-11-05T12:40:44.265Z,73.88
2022-11-05T12:43:15.368Z,73.45
2022-11-05T12:45:46.645Z,73.21
2022-11-05T12:48:46.999Z,72.70
2022-11-05T12:51:37.064Z,72.28
2022-11-05T12:54:25.819Z,71.72
2022-11-05T12:56:58.293Z,71.85
2022-11-05T13:00:03.762Z,71.69
2022-11-05T13:02:46.497Z,71.60
2022-11-05T13:05:34.642Z,72.27
2022-11-05T13:08:13.312Z,72.30
2022-11-05T13:11:16.021Z,71.73
2022-11-05T13:14:06.319Z,71.79
2022-11-05T13:16:42.779Z,70.96
2022-11-05T13:19:41.417Z,70.56
2022-11-05T13:22:17.785Z,70.33
2022-11-05T13:24:51.788Z,69.66
2022-11-05T13:27:50.710Z,68.11
2022-11-05T13:30:26.176Z,67.64
2022-11-05T13:33:03.324Z,67.76
2022-11-05T13:35:41.038Z,67.63
2022-11-05T13:38:37.251Z,67.35
2022-11-05T13:41:25.811Z,65.98
2022-11-05T13:44:24.200Z,65.40
2022-11-05T13:47:52.483Z,65.58
2022-11-05T13:50:55.126Z,65.22
2022-11-05T13:54:02.693Z,64.95
2022-11-05T13:57:26.528Z,64.02
2022-11-05T14:00:23.720Z,64.65
2022-11-05T14:03:05.757Z,64.27
2022-11-05T14:05:35.632Z,63.20
2022-11-05T14:08:20.151Z,62.67
2022-11-05T14:11:18.680Z,62.89
2022-11-05T14:13:46.975Z,63.37
2022-11-05T14:16:21.735Z,63.75
2022-11-05T14:19:18.274Z,63.99
2022-11-05T14:21:54.641Z,64.63
2022-11-05T14:24:22.472Z,64.72
2022-11-05T14:27:02.644Z,64.52
2022-11-05T14:29:44.864Z,64.38
2022-11-05T14:32:18.882Z,64.45
2022-11-05T14:34:49.047Z,64.23
2022-11-05T14:37:28.450Z,64.47
2022-11-05T14:39:57.497Z,64.50
2022-11-05T14:42:29.877Z,64.39
2022-11-05T14:44:59.818Z,64.58
2022-11-05T14:47:41.742Z,64.68
2022-11-05T14:50:41.131Z,64.75
2022-11-05T14:53:35.136Z,65.05
2022-11-05T14:56:14.836Z,65.25
2022-11-05T14:58:44.838Z,65.51
2022-11-05T15:01:15.632Z,65.81
2022-11-05T15:04:01.211Z,66.06
2022-11-05T15:06:33.253Z,66.21
2022-11-05T15:09:05.791Z,66.36
2022-11-05T15:11:39.316Z,66.45
2022-11-05T15:14:16.860Z,66.49
2022-11-05T15:16:51.180Z,66.48
2022-11-05T15:19:32.670Z,66.59
2022-11-05T15:22:20.000Z,66.80
2022-11-05T15:24:48.241Z,67.00
2022-11-05T15:27:34.489Z,67.15
2022-11-05T15:30:23.927Z,67.22
2022-11-05T15:32:52.463Z,67.42
2022-11-05T15:35:26.971Z,67.60
2022-11-05T15:38:02.111Z,67.73
2022-11-05T15:40:33.901Z,67.94
2022-11-05T15:43:19.449Z,68.14
2022-11-05T15:46:06.571Z,68.36
2022-11-05T15:48:36.012Z,68.57
2022-11-05T15:51:04.146Z,68.85
2022-11-05T15:53:51.552Z,69.06
2022-11-05T15:56:41.336Z,69.31
2022-11-05T15:59:19.365Z,69.61
2022-11-05T16:02:05.246Z,70.00
2022-11-05T16:04:36.536Z,70.37
2022-11-05T16:07:10.586Z,70.58
2022-11-05T16:09:43.763Z,70.80
2022-11-05T16:12:25.580Z,71.27
2022-11-05T16:15:10.071Z,71.71
2022-11-05T16:17:37.915Z,72.10
2022-11-05T16:20:35.856Z,72.39
2022-11-05T16:23:23.437Z,72.57
2022-11-05T16:25:53.791Z,72.77
2022-11-05T16:28:30.269Z,73.01
2022-11-05T16:31:01.988Z,73.18
2022-11-05T16:33:44.474Z,73.43
2022-11-05T16:36:15.784Z,73.64
2022-11-05T16:38:54.726Z,73.87
2022-11-05T16:41:25.461Z,74.03
2022-11-05T16:43:59.606Z,74.29
2022-11-05T16:46:29.646Z,74.59
2022-11-05T16:48:58.047Z,74.84
2022-11-05T16:51:29.025Z,75.04
2022-11-05T16:53:57.020Z,75.26
2022-11-05T16:56:24.932Z,75.46
2022-11-05T16:58:53.365Z,75.66
2022-11-05T17:01:23.348Z,75.88
2022-11-05T17:03:53.283Z,76.07
2022-11-05T17:06:22.486Z,76.26
2022-11-05T17:20:57.593Z,76.84
2022-11-05T17:23:29.893Z,77.04
2022-11-05T17:26:05.830Z,77.10
2022-11-05T17:28:34.254Z,77.08
2022-11-05T17:31:05.017Z,77.07
2022-11-05T17:33:33.667Z,77.18
2022-11-05T17:36:11.800Z,77.35
2022-11-05T17:38:40.667Z,77.33
2022-11-05T17:41:19.007Z,77.58
2022-11-05T17:43:48.002Z,77.85
2022-11-05T17:46:19.439Z,77.90
2022-11-05T17:48:47.528Z,77.95
2022-11-05T17:51:18.756Z,77.89
2022-11-05T17:53:49.352Z,77.88
2022-11-05T17:56:29.202Z,77.96
2022-11-05T17:59:03.218Z,78.13
2022-11-05T18:01:34.769Z,78.22
2022-11-05T18:04:08.730Z,78.28
2022-11-05T18:06:39.613Z,78.24
2022-11-05T18:09:09.346Z,78.22
2022-11-05T18:11:38.639Z,78.17
2022-11-05T18:14:07.372Z,77.98
2022-11-05T18:16:35.298Z,77.77
2022-11-05T18:19:04.069Z,77.77
2022-11-05T18:21:31.949Z,77.76
2022-11-05T18:24:04.132Z,77.66
2022-11-05T18:26:33.133Z,77.53
2022-11-05T18:29:03.129Z,77.48
2022-11-05T18:31:31.171Z,77.60
2022-11-05T18:33:59.819Z,77.71
2022-11-05T18:36:30.366Z,77.65
2022-11-05T18:39:01.188Z,77.66
2022-11-05T18:41:29.460Z,77.68
2022-11-05T18:44:02.447Z,77.71
2022-11-05T18:49:19.955Z,78.10
2022-11-05T18:51:48.214Z,78.31
2022-11-05T18:54:16.471Z,78.61
2022-11-05T18:56:47.502Z,78.91
2022-11-05T19:02:08.083Z,79.48
2022-11-05T19:04:37.512Z,79.60
2022-11-05T19:07:07.242Z,79.76
2022-11-05T19:09:37.936Z,79.85
2022-11-05T19:12:07.394Z,79.94
2022-11-05T19:14:35.946Z,80.03
2022-11-05T19:17:04.592Z,80.09
2022-11-05T19:19:34.573Z,80.05
2022-11-05T19:22:04.187Z,80.22
2022-11-05T19:24:32.923Z,80.50
2022-11-05T19:27:02.093Z,80.40
2022-11-05T19:29:30.920Z,80.07
2022-11-05T19:31:59.616Z,79.66
2022-11-05T19:34:27.785Z,79.08
2022-11-05T19:36:55.750Z,78.95
2022-11-05T19:39:23.842Z,78.97
2022-11-05T19:41:51.977Z,78.97
2022-11-05T19:44:20.032Z,78.80
2022-11-05T19:46:48.690Z,78.62
2022-11-05T19:49:17.093Z,78.48
2022-11-05T19:51:45.678Z,78.52
2022-11-05T19:54:14.235Z,78.46
2022-11-05T19:56:43.123Z,78.39
2022-11-05T19:59:13.155Z,78.43
2022-11-05T20:01:45.084Z,78.49
2022-11-05T20:04:14.233Z,78.56
2022-11-05T20:06:42.692Z,78.56
2022-11-05T20:09:22.561Z,78.20
2022-11-05T20:11:56.692Z,77.83
2022-11-05T20:14:26.672Z,77.50
2022-11-05T20:16:55.465Z,77.28
2022-11-05T20:19:24.278Z,77.16
2022-11-05T20:21:53.135Z,77.05
2022-11-05T20:24:25.371Z,77.00
2022-11-05T20:26:55.748Z,77.14
2022-11-05T20:29:30.496Z,77.31
2022-11-05T20:32:04.831Z,77.40
2022-11-05T20:34:35.111Z,77.64
2022-11-05T20:37:04.355Z,77.90
2022-11-05T20:39:33.181Z,77.99
2022-11-05T20:42:02.112Z,78.03
2022-11-05T20:44:33.293Z,78.22
2022-11-05T20:47:02.218Z,78.42
2022-11-05T20:49:31.136Z,78.51
2022-11-05T20:51:59.745Z,78.45
2022-11-05T20:54:28.031Z,78.42
2022-11-05T20:56:56.237Z,78.42
2022-11-05T20:59:24.919Z,78.41
2022-11-05T21:01:53.418Z,78.29
2022-11-05T21:04:21.670Z,78.04
2022-11-05T21:06:49.714Z,77.72
2022-11-05T21:09:17.764Z,77.68
2022-11-05T21:12:04.671Z,77.62
2022-11-05T21:14:32.718Z,77.68
2022-11-05T21:17:01.010Z,77.85
2022-11-05T21:19:32.747Z,77.53
2022-11-05T21:22:02.014Z,77.23
2022-11-05T21:24:31.352Z,77.24
2022-11-05T21:26:59.707Z,77.29
2022-11-05T21:29:28.151Z,77.04
2022-11-05T21:31:56.343Z,76.80
2022-11-05T21:34:24.808Z,76.71
2022-11-05T21:36:53.334Z,76.71
2022-11-05T21:39:22.020Z,76.76
2022-11-05T21:41:50.417Z,76.78
2022-11-05T21:44:19.314Z,76.62
2022-11-05T21:46:47.756Z,76.58
2022-11-05T21:49:19.561Z,76.87
2022-11-05T21:52:06.947Z,77.00
2022-11-05T21:54:54.039Z,77.18
2022-11-05T21:57:41.079Z,77.46
2022-11-05T22:00:11.985Z,78.14
2022-11-05T22:02:40.146Z,78.54
2022-11-05T22:05:08.747Z,78.86
2022-11-05T22:07:39.023Z,79.01
2022-11-05T22:10:16.175Z,79.19
2022-11-05T22:12:45.497Z,79.31
2022-11-05T22:15:13.996Z,79.19
2022-11-05T22:17:46.473Z,78.95
2022-11-05T22:20:16.201Z,78.57
2022-11-05T22:22:45.285Z,78.29
2022-11-05T22:25:14.506Z,78.27
2022-11-05T22:27:44.044Z,78.63
2022-11-05T22:30:13.573Z,78.89
2022-11-05T22:32:41.512Z,79.13
2022-11-05T22:35:10.001Z,79.33
2022-11-05T22:37:38.152Z,79.19
2022-11-05T22:40:06.966Z,78.69
2022-11-05T22:42:34.927Z,78.20
2022-11-05T22:45:03.011Z,77.85
2022-11-05T22:47:30.791Z,77.57
2022-11-05T22:49:58.824Z,77.24
2022-11-05T22:52:27.092Z,77.03
2022-11-05T22:54:55.012Z,76.86
2022-11-05T22:57:22.825Z,77.00
2022-11-05T22:59:50.747Z,77.57
2022-11-05T23:02:18.638Z,76.77
2022-11-05T23:04:46.575Z,76.75
2022-11-05T23:07:33.071Z,76.81
2022-11-05T23:10:19.389Z,76.63
2022-11-05T23:12:47.206Z,77.01
2022-11-05T23:15:34.988Z,77.28
2022-11-05T23:18:21.751Z,77.30
2022-11-05T23:21:08.460Z,77.56
2022-11-05T23:23:55.261Z,77.99
2022-11-05T23:26:42.164Z,78.25
2022-11-05T23:29:10.128Z,78.38
2022-11-05T23:31:56.741Z,78.51
2022-11-05T23:34:24.600Z,78.77
2022-11-05T23:37:11.136Z,79.12
2022-11-05T23:39:42.682Z,79.38
2022-11-05T23:42:33.139Z,79.47
2022-11-05T23:45:19.621Z,79.61
2022-11-05T23:48:06.633Z,79.80
2022-11-05T23:50:39.543Z,79.97
2022-11-05T23:53:08.529Z,80.11
2022-11-05T23:55:36.418Z,80.30
2022-11-05T23:58:04.362Z,80.44
